Terminal Aerodrome Forecast
Issued by NWS Jackson, MS

Home | Current Version | Previous Version | Text Only | Print | Product List | Glossary On
Versions: 1 2 3 4 5 6 7 8 9 10 11 12
000
FTUS44 KJAN 231738
TAFMEI
TAF
KMEI 231738Z 2318/2418 27008KT P6SM SCT025 OVC040
     FM240700 28003KT P6SM OVC015
     FM241400 32010KT P6SM BKN015=

USA.gov is the U.S. government's official web portal to all federal, state and local government web resources and services.